Time;durP1;ratioP1;P1;durP2;ratioP2;P2;SDS_P1;SDS_P2;PMS_P1;PMS_P2;Temp;Humidity;BMP_temperature;BMP_pressure;BME280_temperature;BME280_humidity;BME280_pressure;Samples;Min_cycle;Max_cycle;Signal;HPM_P1;HPM_P2
2022/05/23 00:02:18;;;;;;;6.22;2.70;;;;;;;;;;5111154;28;20046;-74
2022/05/23 00:04:45;;;;;;;8.05;2.75;;;;;;;;;;5113006;28;20039;-74
2022/05/23 00:07:15;;;;;;;7.05;3.42;;;;;;;;;;5112041;27;20040;-74
2022/05/23 00:09:42;;;;;;;8.00;4.00;;;;;;;;;;5120266;27;20041;-74
2022/05/23 00:12:08;;;;;;;6.00;2.50;;;;;;;;;;5105110;27;20442;-74
2022/05/23 00:14:34;;;;;;;8.13;2.42;;;;;;;;;;5122985;27;20405;-74
2022/05/23 00:17:00;;;;;;;3.55;2.90;;;;;;;;;;5123035;27;20562;-74
2022/05/23 00:19:27;;;;;;;6.60;2.53;;;;;;;;;;5128041;27;20044;-74
2022/05/23 00:21:53;;;;;;;5.05;2.40;;;;;;;;;;5111604;28;20044;-74
2022/05/23 00:24:20;;;;;;;5.25;2.70;;;;;;;;;;5095193;28;20079;-74
2022/05/23 00:26:47;;;;;;;3.08;2.33;;;;;;;;;;5105801;28;20058;-74
2022/05/23 00:29:13;;;;;;;6.25;2.83;;;;;;;;;;5120233;27;20040;-74
2022/05/23 00:35:17;;;;;;;7.43;3.53;;;;;;;;;;5115767;27;20040;-74
2022/05/23 00:37:10;;;;;;;4.50;3.00;;;;;;;;;;5107925;27;20880;-74
2022/05/23 00:39:37;;;;;;;6.38;2.97;;;;;;;;;;5113101;27;20046;-74
2022/05/23 00:44:54;;;;;;;5.57;2.90;;;;;;;;;;5102720;28;20048;-74
2022/05/23 00:47:21;;;;;;;4.72;2.80;;;;;;;;;;5118307;27;20047;-74
2022/05/23 00:49:48;;;;;;;2.92;2.38;;;;;;;;;;5111266;28;20035;-74
2022/05/23 00:52:18;;;;;;;7.50;2.90;;;;;;;;;;5110683;28;20089;-74
2022/05/23 00:54:46;;;;;;;3.92;2.63;;;;;;;;;;5093933;28;20043;-74
2022/05/23 00:57:15;;;;;;;4.93;2.58;;;;;;;;;;5120911;27;20200;-74
2022/05/23 00:59:41;;;;;;;7.38;2.75;;;;;;;;;;5102290;28;20048;-74
2022/05/23 01:02:08;;;;;;;7.13;2.95;;;;;;;;;;5109321;28;20055;-74
2022/05/23 01:04:34;;;;;;;6.35;2.42;;;;;;;;;;5116067;27;20077;-74
2022/05/23 01:07:00;;;;;;;4.60;2.70;;;;;;;;;;5111994;28;20089;-74
2022/05/23 01:09:27;;;;;;;3.60;2.45;;;;;;;;;;5111441;27;20036;-74
2022/05/23 01:11:57;;;;;;;4.72;2.72;;;;;;;;;;5108037;28;20118;-74
2022/05/23 01:14:24;;;;;;;3.70;2.60;;;;;;;;;;5098658;28;20411;-74
2022/05/23 01:16:50;;;;;;;7.22;3.30;;;;;;;;;;5111885;28;20039;-74
2022/05/23 01:19:16;;;;;;;4.47;2.97;;;;;;;;;;5111162;27;20047;-74
2022/05/23 01:21:57;;;;;;;4.45;2.40;;;;;;;;;;5112066;28;20216;-74
2022/05/23 01:24:35;;;;;;;3.72;2.38;;;;;;;;;;5110779;27;20039;-74
2022/05/23 01:27:02;;;;;;;5.47;2.40;;;;;;;;;;5119458;27;20503;-74
2022/05/23 01:29:28;;;;;;;3.20;2.30;;;;;;;;;;5119998;27;20081;-74
2022/05/23 01:31:57;;;;;;;6.68;2.67;;;;;;;;;;5112133;27;20173;-74
2022/05/23 01:34:23;;;;;;;5.15;2.55;;;;;;;;;;5112028;28;20031;-74
2022/05/23 01:36:49;;;;;;;6.63;2.38;;;;;;;;;;5119206;27;20036;-74
2022/05/23 01:39:15;;;;;;;3.20;2.17;;;;;;;;;;5118860;27;20065;-74
2022/05/23 01:41:41;;;;;;;3.75;2.33;;;;;;;;;;5100615;28;20044;-74
2022/05/23 01:44:07;;;;;;;6.13;2.70;;;;;;;;;;5103400;28;20046;-74
2022/05/23 01:46:34;;;;;;;6.15;2.30;;;;;;;;;;5097282;28;20128;-74
2022/05/23 01:49:00;;;;;;;4.07;2.00;;;;;;;;;;5111371;28;20047;-74
2022/05/23 01:51:26;;;;;;;5.50;2.42;;;;;;;;;;5110496;28;20089;-74
2022/05/23 01:53:52;;;;;;;4.53;2.28;;;;;;;;;;5111319;28;20504;-74
2022/05/23 01:56:18;;;;;;;3.85;2.63;;;;;;;;;;5092798;28;20054;-74
2022/05/23 02:01:29;;;;;;;5.03;2.28;;;;;;;;;;5112520;27;20515;-74
2022/05/23 02:03:55;;;;;;;3.83;2.28;;;;;;;;;;5110039;28;20100;-74
2022/05/23 02:06:21;;;;;;;4.68;2.35;;;;;;;;;;5097366;27;20093;-74
2022/05/23 02:08:47;;;;;;;3.60;2.13;;;;;;;;;;5097975;28;20122;-74
2022/05/23 02:11:14;;;;;;;5.50;2.55;;;;;;;;;;5110486;28;20050;-74
2022/05/23 02:13:41;;;;;;;4.65;2.20;;;;;;;;;;5110004;28;20039;-74
2022/05/23 02:16:08;;;;;;;5.30;2.45;;;;;;;;;;5111071;28;20043;-74
2022/05/23 02:18:34;;;;;;;2.75;1.90;;;;;;;;;;5109543;28;20168;-74
2022/05/23 02:21:00;;;;;;;4.82;2.33;;;;;;;;;;5113365;28;20027;-74
2022/05/23 02:23:26;;;;;;;4.40;2.35;;;;;;;;;;5109541;28;20043;-74
2022/05/23 02:25:52;;;;;;;4.22;2.55;;;;;;;;;;5109402;28;20082;-74
2022/05/23 02:28:22;;;;;;;5.90;2.50;;;;;;;;;;5109388;28;20035;-74
2022/05/23 02:30:49;;;;;;;7.95;2.50;;;;;;;;;;5110739;28;20071;-74
2022/05/23 02:33:15;;;;;;;3.88;1.88;;;;;;;;;;5109388;28;20051;-74
2022/05/23 02:35:42;;;;;;;2.95;2.05;;;;;;;;;;5127069;27;20031;-74
2022/05/23 02:38:08;;;;;;;3.58;2.72;;;;;;;;;;5125096;27;20044;-74
2022/05/23 02:40:34;;;;;;;3.03;2.13;;;;;;;;;;5104794;28;20069;-74
2022/05/23 02:43:00;;;;;;;3.17;2.28;;;;;;;;;;5115392;27;20107;-74
2022/05/23 02:45:26;;;;;;;4.60;2.33;;;;;;;;;;5108949;28;20054;-74
2022/05/23 02:47:52;;;;;;;5.53;3.13;;;;;;;;;;5112268;28;20039;-74
2022/05/23 02:50:19;;;;;;;4.03;2.33;;;;;;;;;;5110831;28;20040;-74
2022/05/23 02:52:45;;;;;;;2.92;2.15;;;;;;;;;;5110380;28;20089;-74
2022/05/23 02:55:12;;;;;;;11.50;3.25;;;;;;;;;;5109277;28;20040;-74
2022/05/23 02:57:39;;;;;;;3.38;2.42;;;;;;;;;;5111781;28;20350;-74
2022/05/23 03:00:07;;;;;;;8.07;2.95;;;;;;;;;;5114953;27;20087;-74
2022/05/23 03:05:18;;;;;;;7.80;2.80;;;;;;;;;;5110513;28;20043;-74
2022/05/23 03:07:45;;;;;;;3.25;2.80;;;;;;;;;;5092219;28;20055;-74
2022/05/23 03:10:12;;;;;;;5.13;3.20;;;;;;;;;;5092408;28;20083;-74
2022/05/23 03:12:38;;;;;;;6.50;2.72;;;;;;;;;;5109420;28;20508;-74
2022/05/23 03:15:05;;;;;;;5.57;2.67;;;;;;;;;;5116352;28;20389;-74
2022/05/23 03:17:32;;;;;;;21.83;3.67;;;;;;;;;;5107417;28;20390;-74
2022/05/23 03:19:58;;;;;;;3.60;2.70;;;;;;;;;;5115839;28;20031;-74
2022/05/23 03:27:54;;;;;;;3.55;2.60;;;;;;;;;;5109788;28;20143;-74
2022/05/23 03:30:20;;;;;;;4.22;2.20;;;;;;;;;;5110197;28;20040;-74
2022/05/23 03:32:46;;;;;;;6.60;3.50;;;;;;;;;;5118531;27;20589;-74
2022/05/23 03:35:13;;;;;;;7.03;2.90;;;;;;;;;;5130101;27;20039;-74
2022/05/23 03:37:39;;;;;;;7.40;2.88;;;;;;;;;;5114099;28;20501;-74
2022/05/23 03:40:06;;;;;;;4.72;2.67;;;;;;;;;;5105619;28;20040;-74
2022/05/23 03:42:33;;;;;;;3.67;2.40;;;;;;;;;;5106930;28;20048;-73
2022/05/23 03:44:59;;;;;;;3.88;2.20;;;;;;;;;;5098869;28;20051;-74
2022/05/23 03:47:26;;;;;;;4.75;2.97;;;;;;;;;;5113453;27;20377;-74
2022/05/23 03:49:52;;;;;;;4.78;2.92;;;;;;;;;;5112658;28;20114;-74
2022/05/23 03:52:20;;;;;;;6.10;3.10;;;;;;;;;;5107575;28;20391;-73
2022/05/23 03:54:46;;;;;;;5.22;3.03;;;;;;;;;;5119473;27;20074;-74
2022/05/23 03:57:12;;;;;;;5.50;3.33;;;;;;;;;;5114145;27;20035;-74
2022/05/23 03:59:38;;;;;;;4.50;3.47;;;;;;;;;;5103697;27;20646;-74
2022/05/23 04:02:05;;;;;;;5.00;2.65;;;;;;;;;;5114339;27;20436;-74
2022/05/23 04:04:31;;;;;;;4.13;2.80;;;;;;;;;;5116937;27;20493;-74
2022/05/23 04:07:01;;;;;;;3.97;2.42;;;;;;;;;;5121342;27;20027;-74
2022/05/23 04:09:28;;;;;;;6.07;3.05;;;;;;;;;;5095293;28;20075;-74
2022/05/23 04:11:54;;;;;;;6.38;3.47;;;;;;;;;;5112280;28;20035;-74
2022/05/23 04:14:20;;;;;;;4.30;3.13;;;;;;;;;;5112136;28;20397;-74
2022/05/23 04:16:48;;;;;;;3.72;3.00;;;;;;;;;;5112000;28;20097;-74
2022/05/23 04:19:16;;;;;;;5.05;3.00;;;;;;;;;;5113267;28;20065;-74
2022/05/23 04:21:43;;;;;;;10.02;3.20;;;;;;;;;;5119813;27;20039;-74
2022/05/23 04:24:10;;;;;;;5.50;3.45;;;;;;;;;;5122520;27;20039;-74
2022/05/23 04:26:37;;;;;;;5.97;3.72;;;;;;;;;;5115838;27;20435;-74
2022/05/23 04:29:06;;;;;;;7.82;3.17;;;;;;;;;;5111653;28;20050;-74
2022/05/23 04:31:33;;;;;;;6.50;3.75;;;;;;;;;;5120391;27;20385;-74
2022/05/23 04:36:44;;;;;;;4.85;3.17;;;;;;;;;;5116769;27;20062;-74
2022/05/23 04:39:10;;;;;;;6.40;3.17;;;;;;;;;;5113008;27;20119;-74
2022/05/23 04:41:36;;;;;;;9.98;3.70;;;;;;;;;;5105709;28;20453;-74
2022/05/23 04:44:02;;;;;;;5.43;2.92;;;;;;;;;;5095052;28;20036;-74
2022/05/23 04:46:29;;;;;;;12.75;3.72;;;;;;;;;;5103491;27;20497;-74
2022/05/23 04:51:40;;;;;;;8.27;3.95;;;;;;;;;;5101449;27;20086;-74
2022/05/23 04:54:07;;;;;;;8.38;3.33;;;;;;;;;;5107408;27;20405;-74
2022/05/23 04:56:34;;;;;;;5.57;3.30;;;;;;;;;;5105162;27;20489;-74
2022/05/23 04:59:00;;;;;;;4.78;3.22;;;;;;;;;;5109880;28;20493;-73
2022/05/23 05:01:27;;;;;;;5.28;3.45;;;;;;;;;;5107501;27;20042;-74
2022/05/23 05:03:55;;;;;;;4.60;3.25;;;;;;;;;;5099860;27;20131;-74
2022/05/23 05:06:22;;;;;;;5.22;3.97;;;;;;;;;;5103100;27;20473;-74
2022/05/23 05:08:48;;;;;;;7.40;3.67;;;;;;;;;;5104691;28;20035;-74
2022/05/23 05:11:14;;;;;;;5.25;3.90;;;;;;;;;;5103617;28;20039;-74
2022/05/23 05:13:43;;;;;;;8.15;4.60;;;;;;;;;;5111264;27;20115;-74
2022/05/23 05:16:10;;;;;;;6.78;4.63;;;;;;;;;;5096859;28;20039;-74
2022/05/23 05:18:36;;;;;;;4.95;3.83;;;;;;;;;;5106531;28;20073;-74
2022/05/23 05:21:07;;;;;;;7.38;4.68;;;;;;;;;;5109501;28;20040;-74
2022/05/23 05:23:33;;;;;;;7.60;4.32;;;;;;;;;;5109476;28;20077;-73
2022/05/23 05:25:59;;;;;;;8.18;4.47;;;;;;;;;;5109608;27;20508;-74
2022/05/23 05:28:25;;;;;;;6.28;4.15;;;;;;;;;;5112500;27;20050;-74
2022/05/23 05:30:57;;;;;;;5.15;3.92;;;;;;;;;;5111562;27;20050;-73
2022/05/23 05:33:26;;;;;;;6.45;3.75;;;;;;;;;;5108894;28;20093;-74
2022/05/23 05:36:02;;;;;;;8.98;4.97;;;;;;;;;;5106247;28;20436;-74
2022/05/23 05:38:34;;;;;;;9.80;5.13;;;;;;;;;;5095297;28;20032;-74
2022/05/23 05:41:03;;;;;;;6.45;3.72;;;;;;;;;;5094052;28;20040;-74
2022/05/23 05:43:32;;;;;;;8.52;5.28;;;;;;;;;;5105060;28;20036;-74
2022/05/23 05:46:01;;;;;;;5.57;4.70;;;;;;;;;;5111204;27;20442;-74
2022/05/23 05:48:28;;;;;;;6.53;4.13;;;;;;;;;;5113801;27;20435;-74
2022/05/23 05:50:54;;;;;;;6.82;4.35;;;;;;;;;;5107782;27;20067;-74
2022/05/23 05:53:25;;;;;;;9.15;5.07;;;;;;;;;;5102501;28;20078;-74
2022/05/23 05:55:51;;;;;;;8.63;5.20;;;;;;;;;;5091168;28;20389;-73
2022/05/23 05:58:18;;;;;;;9.55;4.93;;;;;;;;;;5097690;27;20136;-74
2022/05/23 06:00:44;;;;;;;7.65;5.18;;;;;;;;;;5110437;27;20056;-74
2022/05/23 06:03:10;;;;;;;9.55;5.63;;;;;;;;;;5112787;27;20428;-74
2022/05/23 06:11:23;;;;;;;7.45;4.43;;;;;;;;;;5110270;28;20572;-74
2022/05/23 06:11:23;;;;;;;7.78;5.47;;;;;;;;;;5095869;28;20100;-74
2022/05/23 06:14:00;;;;;;;5.72;4.72;;;;;;;;;;5096956;28;20044;-74
2022/05/23 06:16:27;;;;;;;9.80;4.95;;;;;;;;;;5112212;27;20063;-74
2022/05/23 06:18:53;;;;;;;9.10;5.03;;;;;;;;;;5118700;27;20369;-74
2022/05/23 06:21:20;;;;;;;8.32;4.93;;;;;;;;;;5106905;27;20068;-74
2022/05/23 06:23:46;;;;;;;5.82;4.97;;;;;;;;;;5102470;27;20093;-74
2022/05/23 06:26:14;;;;;;;8.55;4.55;;;;;;;;;;5107511;27;20082;-74
2022/05/23 06:28:40;;;;;;;7.18;4.88;;;;;;;;;;5106313;28;20040;-74
2022/05/23 06:31:06;;;;;;;9.45;4.88;;;;;;;;;;5108257;27;20092;-74
2022/05/23 06:33:33;;;;;;;7.28;4.70;;;;;;;;;;5105326;28;20055;-74
2022/05/23 06:35:59;;;;;;;6.78;5.10;;;;;;;;;;5102162;28;20044;-74
2022/05/23 06:38:25;;;;;;;10.70;4.97;;;;;;;;;;5109971;28;20841;-74
2022/05/23 06:40:52;;;;;;;7.82;5.00;;;;;;;;;;5122133;27;20348;-74
2022/05/23 06:43:19;;;;;;;6.18;5.10;;;;;;;;;;5103746;27;20089;-74
2022/05/23 06:45:46;;;;;;;6.97;4.70;;;;;;;;;;5110567;28;20035;-74
2022/05/23 06:48:12;;;;;;;7.43;5.35;;;;;;;;;;5109847;28;20061;-74
2022/05/23 06:50:38;;;;;;;6.22;4.32;;;;;;;;;;5109468;28;20044;-74
2022/05/23 06:53:05;;;;;;;5.97;4.65;;;;;;;;;;5103905;28;20133;-74
2022/05/23 06:55:31;;;;;;;8.15;5.55;;;;;;;;;;5113191;28;20431;-74
2022/05/23 06:57:57;;;;;;;10.02;5.40;;;;;;;;;;5110352;28;20077;-74
2022/05/23 07:00:23;;;;;;;6.03;4.65;;;;;;;;;;5105470;28;20105;-74
2022/05/23 07:02:49;;;;;;;5.75;4.80;;;;;;;;;;5109182;28;20087;-74
2022/05/23 07:13:30;;;;;;;10.55;5.93;;;;;;;;;;5113039;28;20043;-74
2022/05/23 07:15:57;;;;;;;7.78;4.75;;;;;;;;;;5108054;28;20059;-74
2022/05/23 07:18:24;;;;;;;7.45;4.53;;;;;;;;;;5115330;27;20036;-74
2022/05/23 07:20:50;;;;;;;15.00;5.85;;;;;;;;;;5114217;27;20039;-74
2022/05/23 07:23:16;;;;;;;7.47;4.75;;;;;;;;;;5124072;27;20100;-74
2022/05/23 07:25:42;;;;;;;9.45;5.82;;;;;;;;;;5115595;27;20281;-74
2022/05/23 07:28:08;;;;;;;10.05;4.90;;;;;;;;;;5120138;27;20107;-74
2022/05/23 07:30:35;;;;;;;12.13;5.35;;;;;;;;;;5117226;27;20413;-74
2022/05/23 07:33:01;;;;;;;13.40;6.13;;;;;;;;;;5113123;28;20497;-74
2022/05/23 07:35:27;;;;;;;8.82;4.72;;;;;;;;;;5111214;28;20046;-74
2022/05/23 07:37:54;;;;;;;9.18;4.88;;;;;;;;;;5111072;28;20046;-74
2022/05/23 07:40:20;;;;;;;7.00;5.05;;;;;;;;;;5119653;27;20048;-74
2022/05/23 07:42:47;;;;;;;11.02;5.25;;;;;;;;;;5119445;27;20466;-74
2022/05/23 07:45:14;;;;;;;9.35;5.10;;;;;;;;;;5112496;28;20246;-74
2022/05/23 07:47:41;;;;;;;6.40;4.95;;;;;;;;;;5114584;28;20169;-74
2022/05/23 07:50:09;;;;;;;8.07;4.65;;;;;;;;;;5119700;27;20073;-74
2022/05/23 07:52:35;;;;;;;6.32;4.82;;;;;;;;;;5114010;28;20051;-74
2022/05/23 08:00:34;;;;;;;8.48;4.97;;;;;;;;;;5104595;28;20051;-74
2022/05/23 08:03:03;;;;;;;9.00;4.88;;;;;;;;;;5103487;28;20055;-74
2022/05/23 08:05:29;;;;;;;9.32;5.68;;;;;;;;;;5112170;28;20093;-74
2022/05/23 08:07:56;;;;;;;10.60;5.70;;;;;;;;;;5113354;28;20044;-74
2022/05/23 08:10:22;;;;;;;9.93;4.97;;;;;;;;;;5113637;27;20077;-74
2022/05/23 08:12:52;;;;;;;9.13;5.97;;;;;;;;;;5111002;28;20036;-74
2022/05/23 08:15:19;;;;;;;9.30;5.47;;;;;;;;;;5111607;28;20077;-74
2022/05/23 08:17:45;;;;;;;8.50;5.57;;;;;;;;;;5098233;28;20094;-74
2022/05/23 08:20:12;;;;;;;5.93;4.63;;;;;;;;;;5121253;27;20499;-74
2022/05/23 08:22:38;;;;;;;6.40;4.65;;;;;;;;;;5110575;27;20047;-74
2022/05/23 08:25:04;;;;;;;5.85;5.00;;;;;;;;;;5119517;27;20481;-74
2022/05/23 08:27:32;;;;;;;8.23;5.57;;;;;;;;;;5126798;27;20054;-74
2022/05/23 08:29:59;;;;;;;7.75;5.28;;;;;;;;;;5113686;27;20118;-74
2022/05/23 08:32:25;;;;;;;7.15;5.28;;;;;;;;;;5110454;28;20548;-74
2022/05/23 08:34:52;;;;;;;7.57;5.22;;;;;;;;;;5087838;28;20559;-74
2022/05/23 08:37:18;;;;;;;12.90;5.25;;;;;;;;;;5122290;27;20039;-74
2022/05/23 08:39:44;;;;;;;9.77;5.65;;;;;;;;;;5114319;27;20038;-74
2022/05/23 08:42:23;;;;;;;7.53;5.45;;;;;;;;;;5093235;28;20044;-74
2022/05/23 08:44:56;;;;;;;7.15;5.35;;;;;;;;;;5086717;28;20572;-73
2022/05/23 08:47:22;;;;;;;11.05;5.38;;;;;;;;;;5111917;27;20039;-74
2022/05/23 08:49:59;;;;;;;6.45;4.97;;;;;;;;;;5120412;27;20083;-74
2022/05/23 08:52:31;;;;;;;8.63;5.18;;;;;;;;;;5118255;27;20051;-74
2022/05/23 08:55:03;;;;;;;9.90;5.25;;;;;;;;;;5109050;27;20074;-73
2022/05/23 08:57:36;;;;;;;9.50;5.07;;;;;;;;;;5119416;27;20508;-74
2022/05/23 09:00:06;;;;;;;8.57;5.20;;;;;;;;;;5098611;27;20056;-74
2022/05/23 09:02:37;;;;;;;8.73;5.10;;;;;;;;;;5111625;27;20086;-74
2022/05/23 09:05:12;;;;;;;11.05;5.85;;;;;;;;;;5111895;27;20095;-74
2022/05/23 09:07:44;;;;;;;8.82;5.45;;;;;;;;;;5112059;27;20047;-74
2022/05/23 09:10:15;;;;;;;8.88;6.15;;;;;;;;;;5116136;27;20040;-73
2022/05/23 09:12:41;;;;;;;6.28;5.10;;;;;;;;;;5092155;28;20047;-74
2022/05/23 09:15:07;;;;;;;7.05;5.10;;;;;;;;;;5113209;27;20032;-74
2022/05/23 09:17:37;;;;;;;8.68;5.45;;;;;;;;;;5114462;27;20070;-74
2022/05/23 09:20:12;;;;;;;9.20;5.07;;;;;;;;;;5119167;27;20478;-74
2022/05/23 09:22:47;;;;;;;9.02;5.38;;;;;;;;;;5094974;28;20074;-74
2022/05/23 09:25:18;;;;;;;9.32;5.68;;;;;;;;;;5109052;28;20263;-73
2022/05/23 09:27:48;;;;;;;8.80;6.32;;;;;;;;;;5116381;27;20039;-73
2022/05/23 09:30:16;;;;;;;8.60;6.07;;;;;;;;;;5114495;27;20039;-74
2022/05/23 09:33:05;;;;;;;12.57;5.72;;;;;;;;;;5117043;27;20043;-74
2022/05/23 09:35:43;;;;;;;9.70;5.90;;;;;;;;;;5109599;28;20055;-74
2022/05/23 09:38:14;;;;;;;10.57;6.57;;;;;;;;;;5105125;28;20096;-74
2022/05/23 09:40:40;;;;;;;14.52;6.97;;;;;;;;;;5110989;27;20035;-74
2022/05/23 09:49:04;;;;;;;13.75;7.03;;;;;;;;;;5105261;28;20048;-74
2022/05/23 09:51:31;;;;;;;11.23;7.15;;;;;;;;;;5109155;28;20050;-74
2022/05/23 09:53:59;;;;;;;11.88;5.45;;;;;;;;;;5104696;28;20097;-74
2022/05/23 09:56:38;;;;;;;9.93;5.35;;;;;;;;;;5105012;27;20483;-74
2022/05/23 09:59:10;;;;;;;11.20;6.68;;;;;;;;;;5116611;27;20128;-74
2022/05/23 10:01:37;;;;;;;11.63;7.32;;;;;;;;;;5109541;28;20301;-74
2022/05/23 10:04:13;;;;;;;8.15;6.05;;;;;;;;;;5110068;28;20401;-74
2022/05/23 10:06:42;;;;;;;11.80;6.53;;;;;;;;;;5115861;27;20039;-74
2022/05/23 10:09:09;;;;;;;7.90;5.82;;;;;;;;;;5111202;27;20031;-74
2022/05/23 10:11:37;;;;;;;9.52;5.25;;;;;;;;;;5108305;28;20051;-74
2022/05/23 10:14:05;;;;;;;10.10;5.18;;;;;;;;;;5117729;27;20043;-74
2022/05/23 10:16:54;;;;;;;8.77;6.22;;;;;;;;;;5120405;27;20543;-74
2022/05/23 10:19:26;;;;;;;10.38;6.47;;;;;;;;;;5110215;28;20049;-74
2022/05/23 10:22:09;;;;;;;8.43;5.30;;;;;;;;;;5116344;27;20044;-74
2022/05/23 10:24:36;;;;;;;10.88;5.75;;;;;;;;;;5104686;28;20068;-74
2022/05/23 10:27:06;;;;;;;7.75;5.63;;;;;;;;;;5093223;28;20032;-74
2022/05/23 10:29:35;;;;;;;8.70;5.03;;;;;;;;;;5110552;27;20073;-74
2022/05/23 10:32:10;;;;;;;8.73;4.50;;;;;;;;;;5113631;27;20034;-74
2022/05/23 10:34:40;;;;;;;6.45;4.45;;;;;;;;;;5111110;27;20090;-74
2022/05/23 10:37:09;;;;;;;10.27;5.43;;;;;;;;;;5104609;28;20036;-74
2022/05/23 10:42:32;;;;;;;8.82;4.80;;;;;;;;;;5105270;28;20044;-74
2022/05/23 10:45:17;;;;;;;6.03;4.03;;;;;;;;;;5109501;28;20043;-74
2022/05/23 10:47:49;;;;;;;6.00;4.55;;;;;;;;;;5102097;28;20044;-74
2022/05/23 10:50:30;;;;;;;6.25;4.78;;;;;;;;;;5109133;28;20130;-74
2022/05/23 10:53:14;;;;;;;7.60;5.28;;;;;;;;;;5097033;28;20120;-74
2022/05/23 10:55:46;;;;;;;6.32;4.10;;;;;;;;;;5112347;28;20047;-75
2022/05/23 10:58:30;;;;;;;4.50;3.67;;;;;;;;;;5106712;28;20086;-74
2022/05/23 11:01:03;;;;;;;9.65;4.57;;;;;;;;;;5081522;28;20476;-75
2022/05/23 11:03:37;;;;;;;6.38;4.45;;;;;;;;;;5108657;28;20083;-74
2022/05/23 11:06:08;;;;;;;5.65;4.07;;;;;;;;;;5113618;28;20087;-74
2022/05/23 11:08:59;;;;;;;8.07;4.72;;;;;;;;;;5110720;28;20075;-75
2022/05/23 11:11:31;;;;;;;20.73;5.55;;;;;;;;;;5073162;28;20056;-74
2022/05/23 11:14:00;;;;;;;9.73;4.63;;;;;;;;;;5110165;28;20472;-74
2022/05/23 11:16:29;;;;;;;7.60;4.65;;;;;;;;;;5109397;28;20093;-74
2022/05/23 11:19:14;;;;;;;7.18;3.58;;;;;;;;;;5108938;28;20542;-75
2022/05/23 11:22:02;;;;;;;9.10;3.95;;;;;;;;;;5110164;28;20072;-74
2022/05/23 11:24:50;;;;;;;4.85;3.03;;;;;;;;;;5115386;28;20497;-75
2022/05/23 11:33:50;;;;;;;4.90;2.50;;;;;;;;;;5101798;28;20077;-74
2022/05/23 11:35:52;;;;;;;3.40;2.33;;;;;;;;;;5092192;28;20047;-75
2022/05/23 11:38:19;;;;;;;4.22;2.30;;;;;;;;;;5110074;28;20409;-74
2022/05/23 11:40:48;;;;;;;7.75;3.40;;;;;;;;;;5110494;28;20039;-74
2022/05/23 11:43:19;;;;;;;7.72;3.97;;;;;;;;;;5099960;28;20044;-74
2022/05/23 11:46:05;;;;;;;7.85;3.67;;;;;;;;;;5101519;28;20408;-74
2022/05/23 11:48:46;;;;;;;8.05;3.00;;;;;;;;;;5112691;28;20126;-75
2022/05/23 11:51:24;;;;;;;4.50;2.65;;;;;;;;;;5108021;28;20130;-75
2022/05/23 11:53:57;;;;;;;8.18;3.08;;;;;;;;;;5109488;28;20040;-74
2022/05/23 11:56:42;;;;;;;6.13;2.90;;;;;;;;;;5115020;27;20043;-75
2022/05/23 11:59:10;;;;;;;3.70;1.95;;;;;;;;;;5108233;27;20465;-75
2022/05/23 12:01:36;;;;;;;6.50;2.60;;;;;;;;;;5112880;27;20092;-74
2022/05/23 12:04:02;;;;;;;8.32;2.65;;;;;;;;;;5112517;28;20071;-75
2022/05/23 12:06:29;;;;;;;6.53;2.67;;;;;;;;;;5116308;27;20039;-75
2022/05/23 12:08:58;;;;;;;3.58;2.35;;;;;;;;;;5121725;27;20118;-75
2022/05/23 12:11:25;;;;;;;7.35;2.85;;;;;;;;;;5110434;28;20097;-75
2022/05/23 12:13:51;;;;;;;5.03;2.70;;;;;;;;;;5112112;28;20043;-75
2022/05/23 12:16:26;;;;;;;6.30;2.80;;;;;;;;;;5110740;27;20100;-75
2022/05/23 12:19:05;;;;;;;5.90;2.63;;;;;;;;;;5112933;27;20042;-75
2022/05/23 12:21:37;;;;;;;6.50;3.20;;;;;;;;;;5109176;27;20473;-75
2022/05/23 12:24:30;;;;;;;6.93;3.03;;;;;;;;;;5122539;27;20488;-74
2022/05/23 12:27:00;;;;;;;6.60;2.80;;;;;;;;;;5102857;28;20058;-75
2022/05/23 12:29:30;;;;;;;7.15;2.67;;;;;;;;;;5112493;28;20517;-75
2022/05/23 12:32:06;;;;;;;10.18;3.40;;;;;;;;;;5107421;28;20082;-75
2022/05/23 12:34:40;;;;;;;4.05;2.95;;;;;;;;;;5111796;28;20466;-75
2022/05/23 12:37:11;;;;;;;5.10;2.50;;;;;;;;;;5118260;27;20102;-75
2022/05/23 12:39:44;;;;;;;7.27;3.47;;;;;;;;;;5124567;27;20054;-75
2022/05/23 12:42:29;;;;;;;4.47;2.88;;;;;;;;;;5118077;27;20031;-75
2022/05/23 12:45:08;;;;;;;4.97;3.22;;;;;;;;;;5093590;28;20044;-75
2022/05/23 12:47:49;;;;;;;7.18;2.83;;;;;;;;;;5111692;28;20553;-75
2022/05/23 12:50:23;;;;;;;4.80;2.83;;;;;;;;;;5121069;27;20397;-76
2022/05/23 12:53:02;;;;;;;7.35;3.00;;;;;;;;;;5114886;27;20048;-75
2022/05/23 12:55:34;;;;;;;4.30;2.53;;;;;;;;;;5094357;28;20074;-76
2022/05/23 12:58:25;;;;;;;6.05;2.72;;;;;;;;;;5091904;28;20125;-75
2022/05/23 13:00:55;;;;;;;10.70;2.78;;;;;;;;;;5109101;27;20043;-75
2022/05/23 13:03:29;;;;;;;6.35;2.63;;;;;;;;;;5113600;27;20088;-68
2022/05/23 13:05:58;;;;;;;8.18;3.17;;;;;;;;;;5121098;27;20488;-68
2022/05/23 13:08:33;;;;;;;5.00;2.67;;;;;;;;;;5113612;27;20043;-69
2022/05/23 13:11:02;;;;;;;6.13;2.90;;;;;;;;;;5114251;27;20046;-69
2022/05/23 13:13:34;;;;;;;6.28;3.90;;;;;;;;;;5106582;28;20047;-69
2022/05/23 13:16:17;;;;;;;5.65;3.03;;;;;;;;;;5107050;27;20036;-69
2022/05/23 13:24:14;;;;;;;6.15;3.65;;;;;;;;;;5110212;27;20055;-69
2022/05/23 13:26:40;;;;;;;9.27;3.33;;;;;;;;;;5107853;27;20400;-69
2022/05/23 13:29:10;;;;;;;6.07;3.67;;;;;;;;;;5102370;27;20497;-69
2022/05/23 13:31:36;;;;;;;6.47;3.53;;;;;;;;;;5099312;28;20293;-70
2022/05/23 13:34:03;;;;;;;10.45;5.20;;;;;;;;;;5104760;28;20065;-69
2022/05/23 13:36:49;;;;;;;9.23;4.70;;;;;;;;;;5116961;27;20039;-69
2022/05/23 13:39:16;;;;;;;8.65;4.63;;;;;;;;;;5108247;27;20050;-69
2022/05/23 13:41:43;;;;;;;7.65;4.32;;;;;;;;;;5110269;27;20409;-69
2022/05/23 13:44:19;;;;;;;11.45;5.35;;;;;;;;;;5103318;28;20048;-70
2022/05/23 13:46:46;;;;;;;7.13;4.00;;;;;;;;;;5106462;28;20528;-69
2022/05/23 13:49:35;;;;;;;7.05;4.60;;;;;;;;;;5108856;28;20060;-70
2022/05/23 13:52:04;;;;;;;7.88;4.85;;;;;;;;;;5100932;28;20054;-70
2022/05/23 13:54:50;;;;;;;9.00;5.20;;;;;;;;;;5107036;27;20118;-70
2022/05/23 13:57:16;;;;;;;6.72;4.47;;;;;;;;;;5115304;27;20071;-69
2022/05/23 13:59:45;;;;;;;5.32;4.10;;;;;;;;;;5114783;27;20055;-69
2022/05/23 14:02:14;;;;;;;5.53;3.97;;;;;;;;;;5114128;27;20103;-69
2022/05/23 14:04:41;;;;;;;6.30;4.82;;;;;;;;;;5105958;28;20082;-69
2022/05/23 14:07:09;;;;;;;9.48;4.63;;;;;;;;;;5090594;28;20062;-67
2022/05/23 14:09:40;;;;;;;6.45;4.60;;;;;;;;;;5108321;27;20462;-67
2022/05/23 14:12:07;;;;;;;6.35;4.70;;;;;;;;;;5117408;27;20040;-68
2022/05/23 14:14:38;;;;;;;8.77;4.50;;;;;;;;;;5094356;28;20652;-67
2022/05/23 14:17:23;;;;;;;9.00;4.53;;;;;;;;;;5097796;28;20044;-67
2022/05/23 14:19:51;;;;;;;6.57;4.20;;;;;;;;;;5112027;27;20040;-67
2022/05/23 14:22:23;;;;;;;6.63;4.63;;;;;;;;;;5102865;27;20038;-68
2022/05/23 14:24:52;;;;;;;5.60;4.40;;;;;;;;;;5108854;27;20122;-68
2022/05/23 14:27:34;;;;;;;12.15;4.80;;;;;;;;;;5115627;27;20504;-68
2022/05/23 14:30:16;;;;;;;5.47;4.10;;;;;;;;;;5100878;28;20538;-67
2022/05/23 14:32:43;;;;;;;9.05;4.95;;;;;;;;;;5108889;28;20031;-68
2022/05/23 14:35:15;;;;;;;7.38;4.40;;;;;;;;;;5104038;28;20067;-67
2022/05/23 14:37:42;;;;;;;8.63;4.68;;;;;;;;;;5081581;27;20432;-68
2022/05/23 14:40:10;;;;;;;7.68;4.30;;;;;;;;;;5109874;27;20398;-67
2022/05/23 14:42:38;;;;;;;7.35;4.50;;;;;;;;;;5108902;27;20039;-68
2022/05/23 14:45:11;;;;;;;6.78;4.93;;;;;;;;;;5108562;28;20108;-67
2022/05/23 14:47:37;;;;;;;6.55;4.45;;;;;;;;;;5109255;28;20039;-68
2022/05/23 14:50:08;;;;;;;10.88;4.53;;;;;;;;;;5107868;28;20043;-67
2022/05/23 14:52:39;;;;;;;8.18;4.55;;;;;;;;;;5104459;28;20053;-68
2022/05/23 14:55:19;;;;;;;9.50;4.65;;;;;;;;;;5116063;28;20099;-68
2022/05/23 15:00:43;;;;;;;10.88;4.70;;;;;;;;;;5108704;28;20076;-67
2022/05/23 15:03:09;;;;;;;5.22;4.38;;;;;;;;;;5111462;28;20512;-68
2022/05/23 15:05:35;;;;;;;5.50;4.25;;;;;;;;;;5100437;28;20040;-69
2022/05/23 15:08:03;;;;;;;10.60;4.63;;;;;;;;;;5107084;28;20139;-68
2022/05/23 15:10:29;;;;;;;6.55;4.30;;;;;;;;;;5114946;28;20512;-67
2022/05/23 15:12:56;;;;;;;6.97;4.03;;;;;;;;;;5115287;28;20526;-68
2022/05/23 15:15:22;;;;;;;6.70;4.93;;;;;;;;;;5101956;28;20039;-67
2022/05/23 15:17:48;;;;;;;6.32;4.97;;;;;;;;;;5111863;27;20035;-68
2022/05/23 15:20:15;;;;;;;7.38;5.28;;;;;;;;;;5108569;28;20055;-67
2022/05/23 15:22:41;;;;;;;11.43;9.23;;;;;;;;;;5102669;28;20046;-67
2022/05/23 15:25:09;;;;;;;17.15;15.07;;;;;;;;;;5108053;28;20069;-68
2022/05/23 15:27:36;;;;;;;21.33;16.88;;;;;;;;;;5115966;27;20046;-68
2022/05/23 15:30:05;;;;;;;18.80;16.85;;;;;;;;;;5119320;27;20047;-67
2022/05/23 15:32:31;;;;;;;22.63;18.02;;;;;;;;;;5110336;27;20490;-67
2022/05/23 15:34:58;;;;;;;22.20;19.15;;;;;;;;;;5122964;27;20127;-68
2022/05/23 15:37:24;;;;;;;23.67;20.20;;;;;;;;;;5120732;27;20067;-67
2022/05/23 15:39:50;;;;;;;22.48;19.13;;;;;;;;;;5102955;27;20036;-67
2022/05/23 15:42:28;;;;;;;30.15;21.67;;;;;;;;;;5112469;27;20039;-67
2022/05/23 15:44:56;;;;;;;22.52;19.95;;;;;;;;;;5111217;28;20043;-67
2022/05/23 15:47:30;;;;;;;27.25;19.65;;;;;;;;;;5118051;27;20142;-67
2022/05/23 15:50:01;;;;;;;26.88;20.73;;;;;;;;;;5119917;27;20439;-67
2022/05/23 15:52:27;;;;;;;22.73;20.13;;;;;;;;;;5121412;27;20035;-68
2022/05/23 15:54:55;;;;;;;23.38;20.67;;;;;;;;;;5114777;27;20115;-67
2022/05/23 15:57:33;;;;;;;24.80;22.10;;;;;;;;;;5103376;27;20046;-67